Informes METAR

LERS - Reus (civ/Mil), Spain
Distancia desde la estación: O 7km
Actualizado: 22/09/2018 14:30
Despejado
Despejado
 Viento del S
Viento: S 15 km/h
Temperatura: 30°C
Heat Index: 32°C
Rocío: 20°C
Humedad: 55%
Barómetro: 1021 hPa
Resumen: Despejado
Visibilidad: greater than 10 km
2018/09/22 12:30 LERS 221230Z 18008KT 140V230 CAVOK 30/20 Q1021
LEBL - Barcelona Airpor, Spain
Distancia desde la estación: ENE 70km
Actualizado: 22/09/2018 14:30
Poco nuboso
Poco nuboso
 Viento del SSO
Viento: SSO 24 km/h
Temperatura: 28°C
Heat Index: 29°C
Rocío: 18°C
Humedad: 55%
Barómetro: 1021 hPa
Nubes: Poco nuboso
Visibilidad: 10 km
Detalles de la nube: Poco nuboso 762 m
2018/09/22 12:30 LEBL 221230Z 21013KT 9999 FEW025 28/18 Q1021 NOSIG
 
LELL - Sabadell, Spain
Distancia desde la estación: ENE 83km
Actualizado: 22/09/2018 14:30
Poco nuboso
Poco nuboso
 Viento del SSO
Viento: SSO 9 km/h
Temperatura: 30°C
Heat Index: 31°C
Rocío: 19°C
Humedad: 52%
Barómetro: 1021 hPa
Nubes: Poco nuboso
Visibilidad: 10 km
Detalles de la nube: Poco nuboso 762 m
2018/09/22 12:30 LELL 221230Z 20005KT 140V290 9999 FEW025 30/19 Q1021
LEDA - Lleida/Alguaire, Spain
Distancia desde la estación: NO 90km
Actualizado: 22/09/2018 08:00
NO METAR ACTUAL
Despejado
Despejado
 Viento del varia
Viento: varia 4 km/h
Temperatura: 17°C
Rocío: 14°C
Humedad: 83%
Barómetro: 1023 hPa
Nubes: Despejado
Visibilidad: 10 km
2018/09/22 06:00 LEDA 220600Z AUTO VRB02KT 9999 NCD 17/14 Q1023
 
LESU - Pirineus/La Seu, Spain
Distancia desde la estación: N 134km
Actualizado: 22/09/2018 14:30
Poco nuboso
Poco nuboso
 Viento del SO
Viento: SO 19 km/h
Temperatura: 28°C
Heat Index: 28°C
Rocío: 14°C
Humedad: 42%
Barómetro: 1023 hPa
Nubes: Poco nuboso
Visibilidad: 10 km
Detalles de la nube: Poco nuboso 914 m
2018/09/22 12:30 LESU 221230Z 23010KT 9999 FEW030 28/14 Q1023
LEGE - Gerona/Costa Bra, Spain
Distancia desde la estación: NE 152km
Actualizado: 22/09/2018 14:30
Parcialmente nuboso
Parcialmente nuboso
 Viento del S
Viento: S 15 km/h
Temperatura: 26°C
Rocío: 20°C
Humedad: 70%
Barómetro: 1022 hPa
Nubes: Parcialmente nuboso
Visibilidad: 10 km
Detalles de la nube: Poco nuboso 762 m
Parcialmente nuboso 914 m
2018/09/22 12:30 LEGE 221230Z 18008KT 140V240 9999 FEW025 SCT030 26/20 Q1022
 
LEHC - Huesca-Pirineos, Spain
Distancia desde la estación: NO 168km
Actualizado: 22/09/2018 14:30
Despejado
Despejado
 Viento del SO
Viento: SO 17 km/h
Temperatura: 29°C
Rocío: 13°C
Humedad: 37%
Barómetro: 1024 hPa
Resumen: Despejado
Visibilidad: greater than 10 km
2018/09/22 12:30 LEHC 221230Z 23009KT 160V290 CAVOK 29/13 Q1024
LEZG - Zaragoza (mil/Ci, Spain
Distancia desde la estación: ONO 198km
Actualizado: 22/09/2018 14:30
Despejado
Despejado
 Viento del ONO
Viento: ONO 11 km/h
Temperatura: 27°C
Heat Index: 27°C
Rocío: 14°C
Humedad: 45%
Barómetro: 1023 hPa
Resumen: Despejado
Visibilidad: greater than 10 km
2018/09/22 12:30 LEZG 221230Z 30006KT 230V010 CAVOK 27/14 Q1023
 
LECH - Calamocha, Spain
Distancia desde la estación: O 216km
Actualizado: 22/09/2018 14:30
Despejado
Despejado
 Viento del ESE
Viento: ESE 13 km/h
Temperatura: 27°C
Heat Index: 29°C
Rocío: 20°C
Humedad: 66%
Barómetro: 1023 hPa
Nubes: Despejado
Visibilidad: 10 km
2018/09/22 12:30 LECH 221230Z AUTO 12007KT 080V150 9999 NCD 27/20 Q1023
LEPA - Palma De Mallorc, Spain
Distancia desde la estación: SE 217km
Actualizado: 22/09/2018 14:30
Poco nuboso
Poco nuboso
 Viento del SO
Viento: SO 20 km/h
Temperatura: 28°C
Heat Index: 30°C
Rocío: 22°C
Humedad: 70%
Barómetro: 1022 hPa
Nubes: Poco nuboso
Visibilidad: 10 km
Detalles de la nube: Poco nuboso 610 m
2018/09/22 12:30 LEPA 221230Z 23011KT 200V260 9999 FEW020 28/22 Q1022 NOSIG
 
LFMP - Perpignan/Rivesa, France
Distancia desde la estación: NE 222km
Actualizado: 22/09/2018 14:30
Despejado
Despejado
 Viento del varia
Viento: varia 6 km/h
Temperatura: 30°C
Rocío: 14°C
Humedad: 38%
Barómetro: 1020 hPa
Resumen: Despejado
Visibilidad: greater than 10 km
2018/09/22 12:30 LFMP 221230Z AUTO VRB03KT CAVOK 30/14 Q1020 NOSIG
LEVC - Valencia (civ/Mi, Spain
Distancia desde la estación: SO 232km
Actualizado: 22/09/2018 14:30
Despejado
Despejado
 Viento del ESE
Viento: ESE 9 km/h
Temperatura: 31°C
Heat Index: 32°C
Rocío: 18°C
Humedad: 46%
Barómetro: 1021 hPa
Resumen: Despejado
Visibilidad: greater than 10 km
2018/09/22 12:30 LEVC 221230Z 11005KT 360V160 CAVOK 31/18 Q1021 NOSIG
 
LFMK - Carcassonne/Salv, France
Distancia desde la estación: NNE 248km
Actualizado: 22/09/2018 14:30
Despejado
Despejado
 Viento del O
Viento: O 26 km/h
Temperatura: 26°C
Rocío: 12°C
Humedad: 42%
Barómetro: 1023 hPa
Resumen: Despejado
Visibilidad: greater than 10 km
2018/09/22 12:30 LFMK 221230Z AUTO 28014KT 240V300 CAVOK 26/12 Q1023 NOSIG
LFBT - Tarbes/Ossun, France
Distancia desde la estación: NNO 249km
Actualizado: 22/09/2018 14:30
Despejado
Despejado
 Viento del varia
Viento: varia 6 km/h
Temperatura: 26°C
Rocío: 16°C
Humedad: 54%
Barómetro: 1024 hPa
Resumen: Despejado
Visibilidad: greater than 10 km
2018/09/22 12:30 LFBT 221230Z AUTO VRB03KT CAVOK 26/16 Q1024 NOSIG
 
LEIB - Ibiza/Es Codola, Spain
Distancia desde la estación: S 252km
Actualizado: 22/09/2018 14:30
Despejado
Despejado
 Viento del SO
Viento: SO 13 km/h
Temperatura: 27°C
Heat Index: 29°C
Rocío: 21°C
Humedad: 70%
Barómetro: 1022 hPa
Resumen: Despejado
Visibilidad: greater than 10 km
2018/09/22 12:30 LEIB 221230Z 22007KT 170V270 CAVOK 27/21 Q1022 NOSIG
LFBO - Toulouse/Blagnac, France
Distancia desde la estación: N 277km
Actualizado: 22/09/2018 14:30
Despejado
Despejado
 Viento del NO
Viento: NO 7 km/h
Temperatura: 24°C
Rocío: 13°C
Humedad: 50%
Barómetro: 1024 hPa
Resumen: Despejado
Visibilidad: greater than 10 km
2018/09/22 12:30 LFBO 221230Z AUTO 32004KT 250V360 CAVOK 24/13 Q1024 NOSIG
 
LFCK - Castres-Mazamet, France
Distancia desde la estación: NNE 282km
Actualizado: 22/09/2018 14:30
Despejado
Despejado
 Viento del NO
Viento: NO 9 km/h
Temperatura: 23°C
Rocío: 9°C
Humedad: 41%
Barómetro: 1024 hPa
Resumen: Despejado
Visibilidad: greater than 10 km
2018/09/22 12:30 LFCK 221230Z AUTO 32005KT 260V350 CAVOK 23/09 Q1024 NOSIG
LFBP - Pont-Long-Uzein/, France
Distancia desde la estación: NNO 284km
Actualizado: 22/09/2018 14:30
Despejado
Despejado
 Viento del varia
Viento: varia 6 km/h
Temperatura: 27°C
Heat Index: 28°C
Rocío: 17°C
Humedad: 54%
Barómetro: 1023 hPa
Resumen: Despejado
Visibilidad: greater than 10 km
2018/09/22 12:30 LFBP 221230Z AUTO VRB03KT CAVOK 27/17 Q1023 NOSIG
 
LEMH - Mahon/Menorca Is, Spain
Distancia desde la estación: ESE 288km
Actualizado: 22/09/2018 14:30
Poco nuboso
Poco nuboso
 Viento del varia
Viento: varia 2 km/h
Temperatura: 26°C
Rocío: 19°C
Humedad: 65%
Barómetro: 1022 hPa
Nubes: Poco nuboso
Visibilidad: 10 km
Detalles de la nube: Poco nuboso 792 m
2018/09/22 12:30 LEMH 221230Z VRB01KT 9999 FEW026 26/19 Q1022
LFMU - Beziers/Vias, France
Distancia desde la estación: NE 299km
Actualizado: 22/09/2018 14:30
Despejado
Despejado
 Viento del O
Viento: O 11 km/h
Temperatura: 29°C
Rocío: 8°C
Humedad: 27%
Barómetro: 1020 hPa
Resumen: Despejado
Visibilidad: greater than 10 km
2018/09/22 12:30 LFMU 221230Z AUTO 28006KT 230V320 CAVOK 29/08 Q1020 NOSIG

 ♦     ♦     ♦     Nunca base decisiones importantes en estos datos u otros obtenidos de Internet     ♦     ♦     ♦